Detalii statie FLORA ARNO ARAD [00001998]

Toti senzorii

Date Temperatura solului [C]Precipitatii [mm]Voltaj baterie [mV]Leaf Wetness [Min]HC Air temperature [C]HC Relative humidity [%]Punctul de roua [C]
medieminmaxsumaultimatimpmedieminmaxmediemediemin
2019-06-15 17:00:00 29.5 29.3 29.7 0 7206 33.06 31.64 34.01 97.91 32.5 31.6
2019-06-15 18:00:00 29.6 29.6 29.8 0 7166 30.48 27.15 32.03 100 30.4 27.1
2019-06-15 19:00:00 29.2 29 29.6 0 7176 26.78 26.04 27.35 100 26.7 26
2019-06-15 20:00:00 28.8 28.6 29.1 0 7020 26.56 26.01 27.17 100 26.5 26
2019-06-15 21:00:00 28.3 28.2 28.6 0 6972 24.25 23.3 25.44 100 24.2 23.3
2019-06-15 22:00:00 27.8 27.6 28.2 0 6962 22.26 21.61 23.22 100 22.2 21.6
2019-06-15 23:00:00 27.3 27.2 27.5 0 6962 21 20.66 21.49 100 20.9 20.6
2019-06-16 00:00:00 26.9 26.7 27.2 0 6952 20.35 20.22 20.58 100 20.3 20.2
2019-06-16 01:00:00 26.5 26.3 26.8 0 6952 20.35 19.78 20.88 100 20.3 19.7
2019-06-16 02:00:00 26.2 26 26.6 0 6952 19.17 18.94 19.6 100 19.1 18.9
2019-06-16 03:00:00 25.8 25.7 26.1 0 6952 19.41 18.92 19.88 100 19.3 18.9
2019-06-16 04:00:00 25.5 25.3 25.7 0 6932 18.54 18.11 18.95 100 18.5 18.1
2019-06-16 05:00:00 25.2 25 25.4 0 6942 19.22 19.12 19.41 100 19.1 19.1
2019-06-16 06:00:00 24.9 24.9 25.2 0 6952 19.46 19.22 19.84 100 19.4 19.2
2019-06-16 07:00:00 24.6 24.4 24.9 0 6992 21.17 20.03 22.97 100 21.1 20
2019-06-16 08:00:00 24.4 24.3 24.6 0 6982 25.14 23.64 26.39 100 25.1 23.6
2019-06-16 09:00:00 24.4 24.2 24.5 0 7040 27.55 26.58 28.51 100 27.5 26.5
2019-06-16 10:00:00 24.5 24.3 24.7 0 7324 29.45 28.76 30.18 99.37 29.2 28.7
2019-06-16 11:00:00 25.1 24.8 25.5 0 7352 30.91 30.1 31.88 98.26 30.4 29.9
2019-06-16 12:00:00 25.7 25.4 26.2 0 7352 31.86 30.78 33.3 95.22 30.8 29.8
2019-06-16 13:00:00 26.6 26.2 27.2 0 7352 32.38 31.28 33.57 98.63 32 31
2019-06-16 14:00:00 27.5 27.2 28.1 0 7362 32.93 31.61 34.62 97 32.2 31.3
2019-06-16 15:00:00 28.4 28.1 28.8 0 7362 32.78 31.75 33.92 98.72 32.4 31.5
2019-06-16 16:00:00 29 28.8 29.3 0 7352 33.57 32.63 34.15 97.72 33 32.2
2019-06-16 17:00:00 29.3 29.3 29.6 0 7332 32.54 30.69 33.89 97.24 31.9 30.6
2019-06-16 18:00:00 29.4 29.3 29.6 0 7176 31.84 29.21 34.31 96.56 31 28.7
2019-06-16 19:00:00 29.1 29 29.4 0 7352 26.23 25.62 27.85 99.89 26.1 25.6
2019-06-16 20:00:00 28.8 28.5 29.1 0 6972 25.67 24.95 26.36 100 25.6 24.9
2019-06-16 21:00:00 28.4 28.3 28.6 0 6962 23.68 22.45 24.95 96.88 23 20.8
2019-06-16 22:00:00 28 27.7 28.3 4 6952 21 19.47 22.14 97.26 20.4 19.4
2019-06-16 23:00:00 27.3 27 27.7 9.6 6952 19.92 19.32 20.32 100 19.8 19.3
2019-06-17 00:00:00 26.5 26.2 27 2 6942 19.12 18.71 19.35 100 19 18.7
2019-06-17 01:00:00 25.9 25.8 26.2 0 6942 18.6 18.44 18.76 100 18.5 18.4
2019-06-17 02:00:00 25.5 25.4 25.9 0 6942 18.4 18.2 18.54 100 18.3 18.2
2019-06-17 03:00:00 25.2 25.1 25.5 0 6932 18.08 17.75 18.35 100 18 17.7
2019-06-17 04:00:00 25 24.8 25.2 0 6942 18.38 18.26 18.56 100 18.3 18.2
2019-06-17 05:00:00 24.8 24.7 25 0 6932 18.02 17.62 18.5 100 17.9 17.6
2019-06-17 06:00:00 24.6 24.3 24.9 0 6932 17.91 17.79 18 100 17.8 17.7
2019-06-17 07:00:00 24.4 24.3 24.7 0 6982 18.51 18 19.34 100 18.4 18
2019-06-17 08:00:00 24.2 24 24.4 0 7040 20.08 19.16 20.72 100 20 19.1
2019-06-17 09:00:00 24 23.9 24.1 0 7050 20.4 20.22 20.62 100 20.3 20.2
2019-06-17 10:00:00 24 23.9 24.1 0 7206 20.88 20.58 21.36 100 20.8 20.5
2019-06-17 11:00:00 24 23.9 24.2 0 7362 21.93 21.48 22.29 100 21.8 21.4
2019-06-17 12:00:00 24.1 23.9 24.3 0 7362 22.71 22.27 23.47 100 22.6 22.2
2019-06-17 13:00:00 24.3 24.2 24.5 0 7362 23.9 23.67 24.26 100 23.8 23.6
2019-06-17 14:00:00 24.7 24.5 24.9 0 7372 24.95 24.4 26.21 100 24.9 24.4
2019-06-17 15:00:00 25.1 24.6 25.4 0 7352 26.74 26.05 27.37 99.91 26.6 26
2019-06-17 16:00:00 25.6 25.1 25.8 0 7362 26.97 26.52 27.46 100 26.9 26.5